createdAt,value
2018-03-15T00:01:07.162Z,44.67
2018-03-15T00:03:35.555Z,37.70
2018-03-15T00:06:03.907Z,42.77
2018-03-15T00:08:32.357Z,33.27
2018-03-15T00:11:00.659Z,35.17
2018-03-15T00:13:29.175Z,37.50
2018-03-15T00:15:57.547Z,37.10
2018-03-15T00:18:25.890Z,32.37
2018-03-15T00:20:54.305Z,34.60
2018-03-15T00:23:22.708Z,40.77
2018-03-15T00:25:51.079Z,29.23
2018-03-15T00:28:19.423Z,34.33
2018-03-15T00:30:47.788Z,33.40
2018-03-15T00:33:17.101Z,32.30
2018-03-15T00:35:45.560Z,34.80
2018-03-15T00:38:14.110Z,28.23
2018-03-15T00:40:43.422Z,27.87
2018-03-15T00:43:12.565Z,34.73
2018-03-15T00:45:41.729Z,39.93
2018-03-15T00:48:10.056Z,33.87
2018-03-15T00:50:39.377Z,28.23
2018-03-15T00:53:07.983Z,28.50
2018-03-15T00:55:37.296Z,26.77
2018-03-15T00:58:05.716Z,26.73
2018-03-15T01:00:34.056Z,34.93
2018-03-15T01:03:02.469Z,34.83
2018-03-15T01:05:31.570Z,28.17
2018-03-15T01:08:00.679Z,29.60
2018-03-15T01:10:29.775Z,26.40
2018-03-15T01:12:58.114Z,27.00
2018-03-15T01:15:26.589Z,25.33
2018-03-15T01:17:55.742Z,25.47
2018-03-15T01:20:24.978Z,27.73
2018-03-15T01:22:53.353Z,28.80
2018-03-15T01:25:21.765Z,26.23
2018-03-15T01:27:50.143Z,27.23
2018-03-15T01:30:18.652Z,26.27
2018-03-15T01:32:47.132Z,31.40
2018-03-15T01:35:15.544Z,26.90
2018-03-15T01:37:43.871Z,33.70
2018-03-15T01:40:12.266Z,27.77
2018-03-15T01:42:40.618Z,25.63
2018-03-15T01:45:09.163Z,35.57
2018-03-15T01:47:37.498Z,28.67
2018-03-15T01:50:05.840Z,25.47
2018-03-15T01:52:35.175Z,37.27
2018-03-15T01:55:03.539Z,27.47
2018-03-15T01:57:31.938Z,35.63
2018-03-15T02:00:00.268Z,29.87
2018-03-15T02:02:28.614Z,28.77
2018-03-15T02:04:56.946Z,37.60
2018-03-15T02:07:25.292Z,39.80
2018-03-15T02:09:53.663Z,34.33
2018-03-15T02:12:22.879Z,29.30
2018-03-15T02:14:52.073Z,32.80
2018-03-15T02:17:20.510Z,30.63
2018-03-15T02:19:48.920Z,34.57
2018-03-15T02:22:17.319Z,32.53
2018-03-15T02:24:45.745Z,31.73
2018-03-15T02:27:14.154Z,30.90
2018-03-15T02:29:43.271Z,24.70
2018-03-15T02:32:12.387Z,30.73
2018-03-15T02:34:40.719Z,33.00
2018-03-15T02:37:09.064Z,27.50
2018-03-15T02:39:38.212Z,35.80
2018-03-15T02:42:06.568Z,30.53
2018-03-15T02:44:34.916Z,38.17
2018-03-15T02:47:03.336Z,30.17
2018-03-15T02:49:32.441Z,39.70
2018-03-15T02:52:01.580Z,33.90
2018-03-15T02:54:29.887Z,34.20
2018-03-15T02:56:58.220Z,40.40
2018-03-15T02:59:26.531Z,31.00
2018-03-15T03:01:55.639Z,43.10
2018-03-15T03:04:24.783Z,35.07
2018-03-15T03:06:53.192Z,37.40
2018-03-15T03:09:21.561Z,41.10
2018-03-15T03:11:49.979Z,34.10
2018-03-15T03:14:18.361Z,40.53
2018-03-15T03:16:46.763Z,32.47
2018-03-15T03:19:15.158Z,31.37
2018-03-15T03:21:43.496Z,32.80
2018-03-15T03:24:11.897Z,32.27
2018-03-15T03:26:40.228Z,31.80
2018-03-15T03:29:08.611Z,36.50
2018-03-15T03:31:36.947Z,30.37
2018-03-15T03:34:06.059Z,32.57
2018-03-15T03:36:35.167Z,31.80
2018-03-15T03:39:04.281Z,37.07
2018-03-15T03:41:33.435Z,39.73
2018-03-15T03:44:01.788Z,31.30
2018-03-15T03:46:30.887Z,30.70
2018-03-15T03:48:59.982Z,30.07
2018-03-15T03:51:28.319Z,34.00
2018-03-15T03:53:56.804Z,43.57
2018-03-15T03:56:25.154Z,30.10
2018-03-15T03:58:53.557Z,30.90
2018-03-15T04:01:22.295Z,29.07
2018-03-15T04:03:50.660Z,29.70
2018-03-15T04:06:19.117Z,26.20
2018-03-15T04:08:47.532Z,33.00
2018-03-15T04:11:16.820Z,31.30
2018-03-15T04:13:45.283Z,51.33
2018-03-15T04:16:13.615Z,30.17
2018-03-15T04:18:42.023Z,37.33
2018-03-15T04:21:10.364Z,30.27
2018-03-15T04:23:38.698Z,31.00
2018-03-15T04:26:07.036Z,30.27
2018-03-15T04:28:35.565Z,31.23
2018-03-15T04:31:03.969Z,35.97
2018-03-15T04:33:32.311Z,25.60
2018-03-15T04:36:00.652Z,32.53
2018-03-15T04:38:29.070Z,25.43
2018-03-15T04:40:58.162Z,29.30
2018-03-15T04:43:26.563Z,45.70
2018-03-15T04:45:54.898Z,32.23
2018-03-15T04:48:23.258Z,33.70
2018-03-15T04:50:51.641Z,31.57
2018-03-15T04:53:20.763Z,30.40
2018-03-15T04:55:49.932Z,26.20
2018-03-15T04:58:18.356Z,35.63
2018-03-15T05:00:47.530Z,31.87
2018-03-15T05:03:15.914Z,31.10
2018-03-15T05:05:45.121Z,29.87
2018-03-15T05:08:13.498Z,33.00
2018-03-15T05:10:41.836Z,30.03
2018-03-15T05:13:10.310Z,31.40
2018-03-15T05:15:38.635Z,33.07
2018-03-15T05:18:07.742Z,39.33
2018-03-15T05:20:36.931Z,32.60
2018-03-15T05:23:05.289Z,37.67
2018-03-15T05:25:33.779Z,37.80
2018-03-15T05:28:02.124Z,33.57
2018-03-15T05:30:30.542Z,32.90
2018-03-15T05:32:59.657Z,38.33
2018-03-15T05:35:28.056Z,28.13
2018-03-15T05:37:56.462Z,36.73
2018-03-15T05:40:24.828Z,40.37
2018-03-15T05:42:54.062Z,33.50
2018-03-15T05:45:22.490Z,36.43
2018-03-15T05:47:50.950Z,32.37
2018-03-15T05:50:19.296Z,35.63
2018-03-15T05:52:47.762Z,32.33
2018-03-15T05:55:17.104Z,45.43
2018-03-15T05:57:46.235Z,35.00
2018-03-15T06:00:14.697Z,28.43
2018-03-15T06:02:43.142Z,30.03
2018-03-15T06:05:11.484Z,33.40
2018-03-15T06:07:39.831Z,33.87
2018-03-15T06:10:08.155Z,33.87
2018-03-15T06:12:36.569Z,36.00
2018-03-15T06:15:05.688Z,29.77
2018-03-15T06:17:34.858Z,38.03
2018-03-15T06:20:03.332Z,32.87
2018-03-15T06:22:31.682Z,32.17
2018-03-15T06:25:00.930Z,31.77
2018-03-15T06:27:29.271Z,29.40
2018-03-15T06:29:57.623Z,34.40
2018-03-15T06:32:25.954Z,30.03
2018-03-15T06:34:54.291Z,31.00
2018-03-15T06:37:22.771Z,29.70
2018-03-15T06:39:51.137Z,27.13
2018-03-15T06:42:19.659Z,36.00
2018-03-15T06:44:48.192Z,35.27
2018-03-15T06:47:16.642Z,31.20
2018-03-15T06:49:46.201Z,33.77
2018-03-15T06:52:15.492Z,29.77
2018-03-15T06:54:43.835Z,26.27
2018-03-15T06:57:12.375Z,20.80
2018-03-15T06:59:40.708Z,29.50
2018-03-15T07:02:09.119Z,25.63
2018-03-15T07:04:37.553Z,23.13
2018-03-15T07:07:05.945Z,24.73
2018-03-15T07:09:34.318Z,23.17
2018-03-15T07:12:03.418Z,24.20
2018-03-15T07:14:32.594Z,23.50
2018-03-15T07:17:00.947Z,19.40
2018-03-15T07:19:29.273Z,21.87
2018-03-15T07:21:57.627Z,24.87
2018-03-15T07:24:25.971Z,24.40
2018-03-15T07:26:54.389Z,21.77
2018-03-15T07:29:23.496Z,25.83
2018-03-15T07:31:52.591Z,22.27
2018-03-15T07:34:20.987Z,21.00
2018-03-15T07:36:49.436Z,27.00
2018-03-15T07:39:18.217Z,26.03
2018-03-15T07:41:46.862Z,23.10
2018-03-15T07:44:15.412Z,26.50
2018-03-15T07:46:43.787Z,19.73
2018-03-15T07:49:12.188Z,20.00
2018-03-15T07:51:40.578Z,24.33
2018-03-15T07:54:08.918Z,22.67
2018-03-15T07:56:37.259Z,26.23
2018-03-15T07:59:05.614Z,22.40
2018-03-15T08:01:34.032Z,17.63
2018-03-15T08:04:03.178Z,16.37
2018-03-15T08:06:31.506Z,22.73
2018-03-15T08:08:59.955Z,18.97
2018-03-15T08:11:28.340Z,24.37
2018-03-15T08:13:57.416Z,24.17
2018-03-15T08:16:26.504Z,28.57
2018-03-15T08:18:54.838Z,22.47
2018-03-15T08:21:24.311Z,24.50
2018-03-15T08:23:52.652Z,20.30
2018-03-15T08:26:21.019Z,24.60
2018-03-15T08:28:50.170Z,25.00
2018-03-15T08:31:18.634Z,31.47
2018-03-15T08:33:47.864Z,26.03
2018-03-15T08:36:16.471Z,26.00
2018-03-15T08:38:44.937Z,25.20
2018-03-15T08:41:14.062Z,22.93
2018-03-15T08:43:42.456Z,22.80
2018-03-15T08:46:10.856Z,23.00
2018-03-15T08:48:39.199Z,21.43
2018-03-15T08:51:07.581Z,25.40
2018-03-15T08:53:35.923Z,22.97
2018-03-15T08:56:04.249Z,28.23
2018-03-15T08:58:32.640Z,23.40
2018-03-15T09:01:00.967Z,22.30
2018-03-15T09:03:30.071Z,21.30
2018-03-15T09:05:59.179Z,25.03
2018-03-15T09:08:27.520Z,23.40
2018-03-15T09:10:55.929Z,23.37
2018-03-15T09:13:24.280Z,19.10
2018-03-15T09:15:52.694Z,23.23
2018-03-15T09:18:21.053Z,18.10
2018-03-15T09:20:49.604Z,22.93
2018-03-15T09:23:18.048Z,23.73
2018-03-15T09:25:46.441Z,23.17
2018-03-15T09:28:14.836Z,21.33
2018-03-15T09:30:43.241Z,18.60
2018-03-15T09:33:13.164Z,20.40
2018-03-15T09:35:42.505Z,17.47
2018-03-15T09:38:10.878Z,21.77
2018-03-15T09:40:39.229Z,20.33
2018-03-15T09:43:08.347Z,19.40
2018-03-15T09:45:36.708Z,15.93
2018-03-15T09:48:05.130Z,22.17
2018-03-15T09:50:33.504Z,18.77
2018-03-15T09:53:01.843Z,17.73
2018-03-15T09:55:30.209Z,19.10
2018-03-15T09:57:58.571Z,18.40
2018-03-15T10:00:26.987Z,18.23
2018-03-15T10:02:55.360Z,16.83
2018-03-15T10:05:23.792Z,18.57
2018-03-15T10:07:52.190Z,32.03
2018-03-15T10:10:20.611Z,23.50
2018-03-15T10:12:49.132Z,18.70
2018-03-15T10:15:18.428Z,21.80
2018-03-15T10:17:47.727Z,21.87
2018-03-15T10:20:16.156Z,18.30
2018-03-15T10:22:44.898Z,21.90
2018-03-15T10:25:13.911Z,19.90
2018-03-15T10:27:41.721Z,17.67
2018-03-15T10:30:10.146Z,16.00
2018-03-15T10:32:39.336Z,16.17
2018-03-15T10:35:14.198Z,12.70
2018-03-15T10:37:43.303Z,16.70
2018-03-15T10:40:11.808Z,15.90
2018-03-15T10:42:40.995Z,18.93
2018-03-15T10:45:09.331Z,16.50
2018-03-15T10:47:37.679Z,15.63
2018-03-15T10:50:06.028Z,16.00
2018-03-15T10:52:34.364Z,15.10
2018-03-15T10:55:03.100Z,17.70
2018-03-15T10:57:31.442Z,14.33
2018-03-15T10:59:59.878Z,17.40
2018-03-15T11:02:34.608Z,17.53
2018-03-15T11:05:03.763Z,16.37
2018-03-15T11:07:39.407Z,16.43
2018-03-15T11:10:16.801Z,15.70
2018-03-15T11:12:45.409Z,16.67
2018-03-15T11:15:13.866Z,17.10
2018-03-15T11:17:42.412Z,15.50
2018-03-15T11:20:10.771Z,17.60
2018-03-15T11:22:39.130Z,15.40
2018-03-15T11:25:07.535Z,19.03
2018-03-15T11:27:35.961Z,14.03
2018-03-15T11:30:04.470Z,28.50
2018-03-15T11:32:32.785Z,14.80
2018-03-15T11:35:01.119Z,12.60
2018-03-15T11:37:29.477Z,14.47
2018-03-15T11:39:57.836Z,14.02
2018-03-15T11:42:26.378Z,15.47
2018-03-15T11:44:54.720Z,18.77
2018-03-15T11:47:23.205Z,13.90
2018-03-15T11:49:51.672Z,13.30
2018-03-15T11:52:20.913Z,16.93
2018-03-15T11:54:49.709Z,13.40
2018-03-15T11:57:18.294Z,15.37
2018-03-15T11:59:46.810Z,13.40
2018-03-15T12:02:15.322Z,15.00
2018-03-15T12:04:45.486Z,15.97
2018-03-15T12:07:14.115Z,12.50
2018-03-15T12:09:42.892Z,19.03
2018-03-15T12:12:11.463Z,14.63
2018-03-15T12:14:39.834Z,13.88
2018-03-15T12:17:08.205Z,15.83
2018-03-15T12:19:37.341Z,13.13
2018-03-15T12:22:05.678Z,13.68
2018-03-15T12:24:34.016Z,14.90
2018-03-15T12:27:02.346Z,16.30
2018-03-15T12:29:30.750Z,18.47
2018-03-15T12:31:59.164Z,15.73
2018-03-15T12:34:28.254Z,15.60
2018-03-15T12:36:56.592Z,14.40
2018-03-15T12:39:24.983Z,15.17
2018-03-15T12:41:53.335Z,14.83
2018-03-15T12:44:21.898Z,14.60
2018-03-15T12:46:50.306Z,15.53
2018-03-15T12:49:18.664Z,12.90
2018-03-15T12:51:47.116Z,16.77
2018-03-15T12:54:16.241Z,15.53
2018-03-15T12:56:44.765Z,14.23
2018-03-15T12:59:13.131Z,13.63
2018-03-15T13:01:41.522Z,15.87
2018-03-15T13:04:09.857Z,12.77
2018-03-15T13:06:38.194Z,13.07
2018-03-15T13:09:07.476Z,15.13
2018-03-15T13:11:35.864Z,13.43
2018-03-15T13:14:04.197Z,13.35
2018-03-15T13:16:33.364Z,19.50
2018-03-15T13:19:01.708Z,13.37
2018-03-15T13:21:30.039Z,17.80
2018-03-15T13:23:58.423Z,15.20
2018-03-15T13:26:26.861Z,14.17
2018-03-15T13:28:55.929Z,15.27
2018-03-15T13:31:24.463Z,12.73
2018-03-15T13:33:53.531Z,15.80
2018-03-15T13:36:21.906Z,13.47
2018-03-15T13:38:50.284Z,14.37
2018-03-15T13:41:18.645Z,14.93
2018-03-15T13:43:47.176Z,13.35
2018-03-15T13:46:16.428Z,13.33
2018-03-15T13:48:44.868Z,16.63
2018-03-15T13:51:13.180Z,13.07
2018-03-15T13:53:41.502Z,14.77
2018-03-15T13:56:09.869Z,17.03
2018-03-15T13:58:38.247Z,17.20
2018-03-15T14:01:06.646Z,18.77
2018-03-15T14:03:35.031Z,18.30
2018-03-15T14:06:03.360Z,13.97
2018-03-15T14:08:31.691Z,16.13
2018-03-15T14:11:00.935Z,16.80
2018-03-15T14:13:29.252Z,16.03
2018-03-15T14:15:58.368Z,15.17
2018-03-15T14:18:26.757Z,14.30
2018-03-15T14:20:56.006Z,14.40
2018-03-15T14:23:24.629Z,14.97
2018-03-15T14:25:53.101Z,16.47
2018-03-15T14:28:21.648Z,14.10
2018-03-15T14:30:50.048Z,17.50
2018-03-15T14:33:19.298Z,17.47
2018-03-15T14:35:47.685Z,17.10
2018-03-15T14:38:16.194Z,13.13
2018-03-15T14:40:44.564Z,14.33
2018-03-15T14:43:12.882Z,14.77
2018-03-15T14:45:41.280Z,15.27
2018-03-15T14:48:09.680Z,16.03
2018-03-15T14:50:37.993Z,16.83
2018-03-15T14:53:07.069Z,15.20
2018-03-15T14:55:35.371Z,14.80
2018-03-15T14:58:04.047Z,12.63
2018-03-15T15:00:32.405Z,17.07
2018-03-15T15:03:00.740Z,12.17
2018-03-15T15:05:29.217Z,13.47
2018-03-15T15:07:57.654Z,13.50
2018-03-15T15:10:26.885Z,12.93
2018-03-15T15:12:55.452Z,17.13
2018-03-15T15:15:24.710Z,16.50
2018-03-15T15:17:53.171Z,15.57
2018-03-15T15:20:21.693Z,18.90
2018-03-15T15:22:50.067Z,14.20
2018-03-15T15:25:18.395Z,15.07
2018-03-15T15:27:46.711Z,16.37
2018-03-15T15:30:15.242Z,20.77
2018-03-15T15:32:43.563Z,17.93
2018-03-15T15:35:11.963Z,19.10
2018-03-15T15:37:40.310Z,17.03
2018-03-15T15:40:08.614Z,17.67
2018-03-15T15:42:37.695Z,20.50
2018-03-15T15:45:06.016Z,21.93
2018-03-15T15:47:35.138Z,20.73
2018-03-15T15:50:03.539Z,24.77
2018-03-15T15:52:31.834Z,21.20
2018-03-15T15:55:00.266Z,23.67
2018-03-15T15:57:28.702Z,26.13
2018-03-15T15:59:57.192Z,27.47
2018-03-15T16:02:26.374Z,22.03
2018-03-15T16:04:55.527Z,21.57
2018-03-15T16:07:23.989Z,31.93
2018-03-15T16:09:52.582Z,22.10
2018-03-15T16:12:21.046Z,24.07
2018-03-15T16:14:49.433Z,25.50
2018-03-15T16:17:17.745Z,25.20
2018-03-15T16:19:46.815Z,24.90
2018-03-15T16:22:15.144Z,28.17
2018-03-15T16:24:43.492Z,25.70
2018-03-15T16:27:11.796Z,25.67
2018-03-15T16:29:40.088Z,22.60
2018-03-15T16:32:08.427Z,23.50
2018-03-15T16:34:36.710Z,29.67
2018-03-15T16:37:05.847Z,25.20
2018-03-15T16:39:34.152Z,28.10
2018-03-15T16:42:02.484Z,23.10
2018-03-15T16:44:30.789Z,26.80
2018-03-15T16:46:59.286Z,24.00
2018-03-15T16:49:28.550Z,23.87
2018-03-15T16:51:56.969Z,25.23
2018-03-15T16:54:25.613Z,24.80
2018-03-15T16:56:54.009Z,22.40
2018-03-15T16:59:22.577Z,22.37
2018-03-15T17:01:51.113Z,24.97
2018-03-15T17:04:20.246Z,22.00
2018-03-15T17:06:48.612Z,25.90
2018-03-15T17:09:17.020Z,23.30
2018-03-15T17:11:45.338Z,29.00
2018-03-15T17:14:13.696Z,25.07
2018-03-15T17:16:41.992Z,26.90
2018-03-15T17:19:10.310Z,24.83
2018-03-15T17:21:38.611Z,28.37
2018-03-15T17:24:07.683Z,26.63
2018-03-15T17:26:36.048Z,25.50
2018-03-15T17:29:04.356Z,27.10
2018-03-15T17:31:32.655Z,29.13
2018-03-15T17:34:01.064Z,28.10
2018-03-15T17:36:29.425Z,27.50
2018-03-15T17:38:57.852Z,29.10
2018-03-15T17:41:26.186Z,23.03
2018-03-15T17:43:54.588Z,23.67
2018-03-15T17:46:23.087Z,25.37
2018-03-15T17:48:51.560Z,24.30
2018-03-15T17:51:20.757Z,23.80
2018-03-15T17:53:49.043Z,26.63
2018-03-15T17:56:17.376Z,31.83
2018-03-15T17:58:45.731Z,30.37
2018-03-15T18:01:14.173Z,31.50
2018-03-15T18:03:42.550Z,22.17
2018-03-15T18:06:10.878Z,25.60
2018-03-15T18:08:39.183Z,27.67
2018-03-15T18:11:07.493Z,31.27
2018-03-15T18:13:36.568Z,26.10
2018-03-15T18:16:04.947Z,26.67
2018-03-15T18:18:33.259Z,29.87
2018-03-15T18:21:01.577Z,27.37
2018-03-15T18:23:30.642Z,28.13
2018-03-15T18:25:59.044Z,25.37
2018-03-15T18:28:27.569Z,25.40
2018-03-15T18:30:56.026Z,25.97
2018-03-15T18:33:24.415Z,25.63
2018-03-15T18:35:53.037Z,27.10
2018-03-15T18:38:23.133Z,27.13
2018-03-15T18:40:52.474Z,30.60
2018-03-15T18:43:20.889Z,28.17
2018-03-15T18:45:49.960Z,28.07
2018-03-15T18:48:18.263Z,29.80
2018-03-15T18:50:46.595Z,25.60
2018-03-15T18:53:15.688Z,28.10
2018-03-15T18:55:44.756Z,29.40
2018-03-15T18:58:13.057Z,26.87
2018-03-15T19:00:41.376Z,30.07
2018-03-15T19:03:10.484Z,25.17
2018-03-15T19:05:39.703Z,30.23
2018-03-15T19:08:08.775Z,27.23
2018-03-15T19:10:37.088Z,30.07
2018-03-15T19:13:05.521Z,29.40
2018-03-15T19:15:34.569Z,30.60
2018-03-15T19:18:02.871Z,24.37
2018-03-15T19:20:31.237Z,30.90
2018-03-15T19:22:59.706Z,25.40
2018-03-15T19:25:28.162Z,25.80
2018-03-15T19:27:57.275Z,24.50
2018-03-15T19:30:26.454Z,26.03
2018-03-15T19:32:54.992Z,34.00
2018-03-15T19:35:23.511Z,27.63
2018-03-15T19:37:51.988Z,30.27
2018-03-15T19:40:20.343Z,30.43
2018-03-15T19:42:48.703Z,23.30
2018-03-15T19:45:17.050Z,31.43
2018-03-15T19:47:46.188Z,26.47
2018-03-15T19:50:14.604Z,33.40
2018-03-15T19:52:42.913Z,32.13
2018-03-15T19:55:11.246Z,27.43
2018-03-15T19:57:39.548Z,28.20
2018-03-15T20:00:07.907Z,29.10
2018-03-15T20:02:36.970Z,26.93
2018-03-15T20:05:09.064Z,28.07
2018-03-15T20:07:37.383Z,30.57
2018-03-15T20:10:05.688Z,27.70
2018-03-15T20:12:34.031Z,26.47
2018-03-15T20:15:02.372Z,27.10
2018-03-15T20:17:30.869Z,26.80
2018-03-15T20:19:59.314Z,31.07
2018-03-15T20:22:34.163Z,27.63
2018-03-15T20:25:02.539Z,26.17
2018-03-15T20:27:36.779Z,30.30
2018-03-15T20:30:05.129Z,29.50
2018-03-15T20:32:39.252Z,27.23
2018-03-15T20:35:07.604Z,26.87
2018-03-15T20:37:35.944Z,29.63
2018-03-15T20:40:10.702Z,28.97
2018-03-15T20:42:39.035Z,27.10
2018-03-15T20:45:07.363Z,31.60
2018-03-15T20:47:42.475Z,27.97
2018-03-15T20:50:10.819Z,30.50
2018-03-15T20:52:39.142Z,27.50
2018-03-15T20:55:07.523Z,31.23
2018-03-15T20:57:35.866Z,27.67
2018-03-15T21:00:04.938Z,34.30
2018-03-15T21:02:33.256Z,33.10
2018-03-15T21:05:02.372Z,30.83
2018-03-15T21:07:31.441Z,30.80
2018-03-15T21:09:59.929Z,30.80
2018-03-15T21:12:28.283Z,31.63
2018-03-15T21:14:56.691Z,28.63
2018-03-15T21:17:25.021Z,28.00
2018-03-15T21:19:53.425Z,31.13
2018-03-15T21:22:21.927Z,31.33
2018-03-15T21:24:50.330Z,34.57
2018-03-15T21:27:18.738Z,29.20
2018-03-15T21:29:46.990Z,28.13
2018-03-15T21:32:15.292Z,33.13
2018-03-15T21:34:44.361Z,29.20
2018-03-15T21:37:12.668Z,36.43
2018-03-15T21:39:40.962Z,28.47
2018-03-15T21:42:09.265Z,29.63
2018-03-15T21:44:38.399Z,30.70
2018-03-15T21:47:06.708Z,32.20
2018-03-15T21:49:35.129Z,31.60
2018-03-15T21:52:03.448Z,26.83
2018-03-15T21:54:32.523Z,28.23
2018-03-15T21:57:00.957Z,30.13
2018-03-15T21:59:29.332Z,32.40
2018-03-15T22:01:58.466Z,35.90
2018-03-15T22:04:26.830Z,31.63
2018-03-15T22:06:55.245Z,28.47
2018-03-15T22:09:23.670Z,30.37
2018-03-15T22:11:52.052Z,32.83
2018-03-15T22:14:20.406Z,34.30
2018-03-15T22:16:49.480Z,37.83
2018-03-15T22:19:17.781Z,29.00
2018-03-15T22:21:46.171Z,34.20
2018-03-15T22:24:14.527Z,31.30
2018-03-15T22:26:42.841Z,31.83
2018-03-15T22:29:11.149Z,36.33
2018-03-15T22:31:39.458Z,32.07
2018-03-15T22:34:07.882Z,29.33
2018-03-15T22:36:36.189Z,33.90
2018-03-15T22:39:04.509Z,38.63
2018-03-15T22:41:32.821Z,32.73
2018-03-15T22:44:01.152Z,36.13
2018-03-15T22:46:29.611Z,32.87
2018-03-15T22:48:58.722Z,33.17
2018-03-15T22:51:27.873Z,35.13
2018-03-15T22:53:56.370Z,35.73
2018-03-15T22:56:24.959Z,39.13
2018-03-15T22:58:53.395Z,40.93
2018-03-15T23:01:21.819Z,39.50
2018-03-15T23:03:50.143Z,47.57
2018-03-15T23:06:18.476Z,42.77
2018-03-15T23:08:46.787Z,41.37
2018-03-15T23:11:16.108Z,45.60
2018-03-15T23:13:45.244Z,47.47
2018-03-15T23:16:13.598Z,47.67
2018-03-15T23:18:41.864Z,45.80
2018-03-15T23:21:10.170Z,44.40
2018-03-15T23:23:38.472Z,47.53
2018-03-15T23:26:07.596Z,47.73
2018-03-15T23:28:35.923Z,52.23
2018-03-15T23:31:04.271Z,52.70
2018-03-15T23:33:32.614Z,47.50
2018-03-15T23:36:01.083Z,46.80
2018-03-15T23:38:29.489Z,53.80
2018-03-15T23:40:57.866Z,49.83
2018-03-15T23:43:26.238Z,51.30
2018-03-15T23:45:54.618Z,55.47
2018-03-15T23:48:22.991Z,49.97
2018-03-15T23:50:51.432Z,53.63
2018-03-15T23:53:19.784Z,53.40
2018-03-15T23:55:48.824Z,58.97
2018-03-15T23:58:17.136Z,47.73
